createdAt,value
2018-01-29T00:00:24.652Z,10.51
2018-01-29T00:01:31.167Z,10.53
2018-01-29T00:02:36.909Z,10.56
2018-01-29T00:03:42.642Z,10.57
2018-01-29T00:04:48.396Z,10.55
2018-01-29T00:05:54.176Z,10.56
2018-01-29T00:07:00.696Z,10.55
2018-01-29T00:08:06.450Z,10.54
2018-01-29T00:09:12.188Z,10.57
2018-01-29T00:10:17.925Z,10.57
2018-01-29T00:11:23.695Z,10.56
2018-01-29T00:12:30.932Z,10.56
2018-01-29T00:13:36.656Z,10.56
2018-01-29T00:14:43.198Z,10.57
2018-01-29T00:15:48.939Z,10.60
2018-01-29T00:16:54.706Z,10.61
2018-01-29T00:18:00.218Z,10.64
2018-01-29T00:19:06.384Z,10.66
2018-01-29T00:20:12.175Z,10.63
2018-01-29T00:21:18.203Z,10.55
2018-01-29T00:22:23.975Z,10.58
2018-01-29T00:23:30.468Z,10.60
2018-01-29T00:24:36.216Z,10.63
2018-01-29T00:25:41.962Z,10.63
2018-01-29T00:26:47.692Z,10.64
2018-01-29T00:27:53.160Z,10.59
2018-01-29T00:28:58.911Z,10.58
2018-01-29T00:30:04.762Z,10.58
2018-01-29T00:31:12.048Z,10.57
2018-01-29T00:32:17.978Z,10.58
2018-01-29T00:33:23.755Z,10.61
2018-01-29T00:34:30.271Z,10.64
2018-01-29T00:35:36.067Z,10.64
2018-01-29T00:36:41.814Z,10.64
2018-01-29T00:37:47.540Z,10.61
2018-01-29T00:38:54.079Z,10.60
2018-01-29T00:40:00.688Z,10.61
2018-01-29T00:41:06.439Z,10.62
2018-01-29T00:42:12.296Z,10.62
2018-01-29T00:43:18.047Z,10.59
2018-01-29T00:44:24.657Z,10.63
2018-01-29T00:45:30.059Z,10.64
2018-01-29T00:46:35.797Z,10.63
2018-01-29T00:47:41.363Z,10.62
2018-01-29T00:48:47.848Z,10.61
2018-01-29T00:49:53.632Z,10.61
2018-01-29T00:51:00.911Z,10.61
2018-01-29T00:52:06.316Z,10.59
2018-01-29T00:53:12.105Z,10.61
2018-01-29T00:54:18.629Z,10.63
2018-01-29T00:55:24.407Z,10.66
2018-01-29T00:56:30.915Z,10.67
2018-01-29T00:57:36.703Z,10.67
2018-01-29T00:58:42.580Z,10.64
2018-01-29T00:59:48.381Z,10.63
2018-01-29T01:00:54.336Z,10.62
2018-01-29T01:02:00.066Z,10.65
2018-01-29T01:03:05.810Z,10.61
2018-01-29T01:04:13.070Z,10.59
2018-01-29T01:05:18.850Z,10.57
2018-01-29T01:06:24.721Z,10.62
2018-01-29T01:07:31.137Z,10.64
2018-01-29T01:08:37.132Z,10.64
2018-01-29T01:09:42.856Z,10.65
2018-01-29T01:10:48.657Z,10.65
2018-01-29T01:11:54.285Z,10.61
2018-01-29T01:13:00.032Z,10.60
2018-01-29T01:14:05.768Z,10.62
2018-01-29T01:15:11.508Z,10.63
2018-01-29T01:16:17.236Z,10.66
2018-01-29T01:17:23.025Z,10.66
2018-01-29T01:18:28.815Z,10.70
2018-01-29T01:19:34.552Z,10.69
2018-01-29T01:20:39.729Z,10.67
2018-01-29T01:21:46.239Z,10.68
2018-01-29T01:22:52.012Z,10.72
2018-01-29T01:23:58.522Z,10.72
2018-01-29T01:25:04.042Z,10.73
2018-01-29T01:26:09.793Z,10.75
2018-01-29T01:27:15.586Z,10.76
2018-01-29T01:28:22.113Z,10.75
2018-01-29T01:29:27.704Z,10.75
2018-01-29T01:30:34.218Z,10.77
2018-01-29T01:31:39.976Z,10.75
2018-01-29T01:32:45.700Z,10.80
2018-01-29T01:33:51.460Z,10.81
2018-01-29T01:34:57.295Z,10.78
2018-01-29T01:36:03.048Z,10.81
2018-01-29T01:37:08.807Z,10.84
2018-01-29T01:38:15.361Z,10.86
2018-01-29T01:39:21.121Z,10.83
2018-01-29T01:40:27.686Z,10.82
2018-01-29T01:41:34.203Z,10.79
2018-01-29T01:42:39.938Z,10.75
2018-01-29T01:43:45.476Z,10.78
2018-01-29T01:44:51.266Z,10.82
2018-01-29T01:45:57.833Z,10.83
2018-01-29T01:47:03.566Z,10.83
2018-01-29T01:48:10.129Z,10.84
2018-01-29T01:49:16.040Z,10.83
2018-01-29T01:50:21.795Z,10.83
2018-01-29T01:51:27.548Z,10.82
2018-01-29T01:52:34.110Z,10.82
2018-01-29T01:53:40.623Z,10.80
2018-01-29T01:54:46.367Z,10.79
2018-01-29T01:55:52.119Z,10.81
2018-01-29T01:56:57.906Z,10.81
2018-01-29T01:58:03.652Z,10.81
2018-01-29T01:59:10.175Z,10.80
2018-01-29T02:00:15.591Z,10.77
2018-01-29T02:01:21.351Z,10.79
2018-01-29T02:02:27.100Z,10.80
2018-01-29T02:03:32.838Z,10.81
2018-01-29T02:04:38.581Z,10.86
2018-01-29T02:05:45.100Z,10.89
2018-01-29T02:06:50.872Z,10.91
2018-01-29T02:07:56.659Z,10.92
2018-01-29T02:09:02.412Z,10.93
2018-01-29T02:10:08.180Z,10.96
2018-01-29T02:11:13.900Z,10.93
2018-01-29T02:12:19.759Z,10.90
2018-01-29T02:13:25.525Z,10.94
2018-01-29T02:14:31.291Z,10.94
2018-01-29T02:15:37.780Z,10.89
2018-01-29T02:16:43.531Z,10.92
2018-01-29T02:17:49.312Z,10.91
2018-01-29T02:18:55.041Z,10.93
2018-01-29T02:20:00.776Z,10.92
2018-01-29T02:21:06.543Z,10.87
2018-01-29T02:22:12.303Z,10.87
2018-01-29T02:23:18.923Z,10.87
2018-01-29T02:24:24.658Z,10.88
2018-01-29T02:25:30.442Z,10.87
2018-01-29T02:26:36.928Z,10.86
2018-01-29T02:27:42.671Z,10.89
2018-01-29T02:28:48.421Z,10.92
2018-01-29T02:29:54.171Z,10.94
2018-01-29T02:30:59.919Z,10.95
2018-01-29T02:32:05.680Z,10.94
2018-01-29T02:33:12.191Z,10.94
2018-01-29T02:34:18.006Z,10.92
2018-01-29T02:35:24.519Z,10.93
2018-01-29T02:36:30.057Z,10.94
2018-01-29T02:37:35.615Z,10.99
2018-01-29T02:38:42.129Z,10.94
2018-01-29T02:39:47.909Z,10.92
2018-01-29T02:40:53.659Z,10.96
2018-01-29T02:42:00.897Z,10.98
2018-01-29T02:43:06.646Z,10.95
2018-01-29T02:44:12.397Z,10.96
2018-01-29T02:45:18.052Z,10.98
2018-01-29T02:46:23.589Z,11.00
2018-01-29T02:47:29.344Z,11.02
2018-01-29T02:48:34.904Z,11.00
2018-01-29T02:49:40.652Z,10.99
2018-01-29T02:50:46.256Z,10.98
2018-01-29T02:51:52.582Z,10.97
2018-01-29T02:52:58.129Z,10.95
2018-01-29T02:54:03.669Z,10.96
2018-01-29T02:55:10.713Z,10.96
2018-01-29T02:56:16.295Z,10.97
2018-01-29T02:57:22.601Z,10.94
2018-01-29T02:58:28.136Z,10.98
2018-01-29T02:59:32.885Z,10.98
2018-01-29T03:00:38.608Z,10.99
2018-01-29T03:01:44.722Z,10.99
2018-01-29T03:02:50.463Z,11.01
2018-01-29T03:03:56.103Z,10.98
2018-01-29T03:05:01.875Z,11.00
2018-01-29T03:06:07.640Z,11.05
2018-01-29T03:07:13.388Z,11.04
2018-01-29T03:08:18.933Z,11.03
2018-01-29T03:09:24.670Z,11.03
2018-01-29T03:10:30.835Z,11.04
2018-01-29T03:11:37.354Z,11.04
2018-01-29T03:12:43.155Z,11.06
2018-01-29T03:13:48.879Z,11.07
2018-01-29T03:14:55.397Z,11.05
2018-01-29T03:16:01.168Z,11.06
2018-01-29T03:17:08.402Z,11.09
2018-01-29T03:18:14.168Z,11.03
2018-01-29T03:19:20.444Z,11.00
2018-01-29T03:20:26.173Z,11.00
2018-01-29T03:21:31.924Z,11.01
2018-01-29T03:22:37.681Z,11.05
2018-01-29T03:23:44.214Z,11.07
2018-01-29T03:24:49.937Z,11.11
2018-01-29T03:25:55.676Z,11.16
2018-01-29T03:27:01.422Z,11.18
2018-01-29T03:28:07.178Z,11.15
2018-01-29T03:29:12.944Z,11.13
2018-01-29T03:30:19.460Z,11.09
2018-01-29T03:31:25.221Z,11.10
2018-01-29T03:32:30.968Z,11.09
2018-01-29T03:33:36.688Z,11.14
2018-01-29T03:34:42.462Z,11.18
2018-01-29T03:35:48.951Z,11.18
2018-01-29T03:36:54.687Z,11.15
2018-01-29T03:38:00.489Z,11.12
2018-01-29T03:39:05.392Z,11.11
2018-01-29T03:40:11.160Z,11.12
2018-01-29T03:41:16.903Z,11.13
2018-01-29T03:42:23.400Z,11.13
2018-01-29T03:43:29.151Z,11.14
2018-01-29T03:44:35.327Z,11.09
2018-01-29T03:45:41.084Z,11.08
2018-01-29T03:46:46.812Z,11.11
2018-01-29T03:47:53.319Z,11.11
2018-01-29T03:48:59.044Z,11.10
2018-01-29T03:50:04.611Z,11.14
2018-01-29T03:51:11.135Z,11.09
2018-01-29T03:52:16.872Z,11.06
2018-01-29T03:53:22.618Z,10.99
2018-01-29T03:54:28.344Z,10.97
2018-01-29T03:55:34.091Z,10.96
2018-01-29T03:56:39.868Z,10.96
2018-01-29T03:57:46.380Z,10.92
2018-01-29T03:58:52.108Z,10.87
2018-01-29T03:59:57.885Z,10.86
2018-01-29T04:01:03.625Z,10.88
2018-01-29T04:02:09.395Z,10.89
2018-01-29T04:03:15.634Z,10.89
2018-01-29T04:04:22.892Z,10.88
2018-01-29T04:05:28.638Z,10.88
2018-01-29T04:06:34.423Z,10.86
2018-01-29T04:07:40.188Z,10.85
2018-01-29T04:08:45.934Z,10.83
2018-01-29T04:09:51.676Z,10.84
2018-01-29T04:10:57.434Z,10.84
2018-01-29T04:12:03.254Z,10.82
2018-01-29T04:13:09.035Z,10.82
2018-01-29T04:14:14.793Z,10.76
2018-01-29T04:15:20.578Z,10.77
2018-01-29T04:16:26.338Z,10.79
2018-01-29T04:17:32.083Z,10.76
2018-01-29T04:18:37.862Z,10.69
2018-01-29T04:19:44.375Z,10.67
2018-01-29T04:20:49.807Z,10.64
2018-01-29T04:21:55.547Z,10.60
2018-01-29T04:23:04.220Z,10.57
2018-01-29T04:24:10.747Z,10.58
2018-01-29T04:25:16.467Z,10.58
2018-01-29T04:26:23.113Z,10.57
2018-01-29T04:27:28.864Z,10.58
2018-01-29T04:28:34.888Z,10.57
2018-01-29T04:29:40.647Z,10.54
2018-01-29T04:30:46.396Z,10.57
2018-01-29T04:31:52.128Z,10.60
2018-01-29T04:32:57.876Z,10.61
2018-01-29T04:34:03.610Z,10.63
2018-01-29T04:35:10.146Z,10.65
2018-01-29T04:36:15.883Z,10.65
2018-01-29T04:37:21.717Z,10.70
2018-01-29T04:38:28.265Z,10.69
2018-01-29T04:39:34.850Z,10.70
2018-01-29T04:40:40.615Z,10.75
2018-01-29T04:41:46.345Z,10.76
2018-01-29T04:42:52.347Z,10.77
2018-01-29T04:43:59.161Z,10.81
2018-01-29T04:45:04.718Z,10.84
2018-01-29T04:46:13.660Z,10.89
2018-01-29T04:47:19.998Z,10.92
2018-01-29T04:48:25.728Z,10.89
2018-01-29T04:49:31.452Z,10.90
2018-01-29T04:50:37.215Z,10.90
2018-01-29T04:51:42.834Z,10.90
2018-01-29T04:52:48.399Z,10.90
2018-01-29T04:53:54.195Z,10.93
2018-01-29T04:54:59.968Z,10.94
2018-01-29T04:56:05.692Z,10.98
2018-01-29T04:57:11.466Z,10.99
2018-01-29T04:58:17.238Z,11.03
2018-01-29T04:59:23.732Z,11.04
2018-01-29T05:00:28.810Z,11.05
2018-01-29T05:01:36.084Z,11.06
2018-01-29T05:02:41.835Z,11.06
2018-01-29T05:03:47.581Z,11.07
2018-01-29T05:04:53.334Z,11.08
2018-01-29T05:05:59.850Z,11.04
2018-01-29T05:07:05.725Z,11.03
2018-01-29T05:08:12.253Z,11.04
2018-01-29T05:09:17.976Z,11.08
2018-01-29T05:10:23.794Z,11.13
2018-01-29T05:11:29.538Z,11.10
2018-01-29T05:12:35.282Z,11.12
2018-01-29T05:13:41.128Z,11.12
2018-01-29T05:14:47.059Z,11.14
2018-01-29T05:15:53.551Z,11.17
2018-01-29T05:16:59.275Z,11.18
2018-01-29T05:18:04.441Z,11.19
2018-01-29T05:19:10.281Z,11.16
2018-01-29T05:20:16.188Z,11.17
2018-01-29T05:21:21.912Z,11.19
2018-01-29T05:22:28.456Z,11.22
2018-01-29T05:23:34.202Z,11.22
2018-01-29T05:24:40.721Z,11.17
2018-01-29T05:25:46.683Z,11.19
2018-01-29T05:26:52.414Z,11.18
2018-01-29T05:27:58.148Z,11.15
2018-01-29T05:29:03.901Z,11.18
2018-01-29T05:30:09.675Z,11.17
2018-01-29T05:31:15.448Z,11.14
2018-01-29T05:32:21.170Z,11.18
2018-01-29T05:33:27.698Z,11.19
2018-01-29T05:34:34.766Z,11.21
2018-01-29T05:39:07.425Z,11.27
2018-01-29T05:40:13.148Z,11.24
2018-01-29T05:41:18.723Z,11.23
2018-01-29T05:42:24.263Z,11.22
2018-01-29T05:43:30.164Z,11.23
2018-01-29T05:44:35.813Z,11.26
2018-01-29T05:45:41.637Z,11.26
2018-01-29T05:46:48.217Z,11.25
2018-01-29T05:47:53.615Z,11.29
2018-01-29T05:48:59.147Z,11.29
2018-01-29T05:50:05.478Z,11.26
2018-01-29T05:51:10.494Z,11.26
2018-01-29T05:52:16.073Z,11.27
2018-01-29T05:53:22.580Z,11.20
2018-01-29T05:54:28.112Z,11.16
2018-01-29T05:55:33.862Z,11.22
2018-01-29T05:56:39.443Z,11.24
2018-01-29T05:57:45.459Z,11.25
2018-01-29T05:58:51.189Z,11.26
2018-01-29T05:59:56.927Z,11.26
2018-01-29T06:01:02.648Z,11.23
2018-01-29T06:02:08.384Z,11.23
2018-01-29T06:03:14.140Z,11.22
2018-01-29T06:04:19.677Z,11.23
2018-01-29T06:05:25.216Z,11.25
2018-01-29T06:06:30.959Z,11.21
2018-01-29T06:07:36.700Z,11.22
2018-01-29T06:08:42.473Z,11.20
2018-01-29T06:09:48.245Z,11.19
2018-01-29T06:10:54.728Z,11.18
2018-01-29T06:12:00.456Z,11.15
2018-01-29T06:13:06.188Z,11.13
2018-01-29T06:14:12.151Z,11.16
2018-01-29T06:15:17.917Z,11.20
2018-01-29T06:16:23.638Z,11.24
2018-01-29T06:17:29.378Z,11.22
2018-01-29T06:18:35.175Z,11.21
2018-01-29T06:19:40.943Z,11.21
2018-01-29T06:20:46.676Z,11.25
2018-01-29T06:21:53.169Z,11.26
2018-01-29T06:22:58.901Z,11.30
2018-01-29T06:24:04.647Z,11.35
2018-01-29T06:25:10.400Z,11.38
2018-01-29T06:26:16.147Z,11.35
2018-01-29T06:27:21.681Z,11.32
2018-01-29T06:28:27.431Z,11.33
2018-01-29T06:29:33.184Z,11.31
2018-01-29T06:30:38.947Z,11.34
2018-01-29T06:31:44.814Z,11.36
2018-01-29T06:32:51.108Z,11.29
2018-01-29T06:33:56.856Z,11.27
2018-01-29T06:35:02.601Z,11.28
2018-01-29T06:36:08.365Z,11.31
2018-01-29T06:37:14.476Z,11.35
2018-01-29T06:38:20.209Z,11.35
2018-01-29T06:39:25.944Z,11.36
2018-01-29T06:40:31.392Z,11.28
2018-01-29T06:41:37.158Z,11.26
2018-01-29T06:42:42.896Z,11.27
2018-01-29T06:43:48.638Z,11.29
2018-01-29T06:44:54.361Z,11.31
2018-01-29T06:46:00.089Z,11.30
2018-01-29T06:47:05.837Z,11.32
2018-01-29T06:48:11.567Z,11.31
2018-01-29T06:49:17.308Z,11.31
2018-01-29T06:50:23.037Z,11.30
2018-01-29T06:51:28.764Z,11.32
2018-01-29T06:52:35.024Z,11.31
2018-01-29T06:53:40.576Z,11.26
2018-01-29T06:54:46.311Z,11.24
2018-01-29T06:55:52.050Z,11.27
2018-01-29T06:56:57.767Z,11.27
2018-01-29T06:58:04.303Z,11.22
2018-01-29T06:59:11.619Z,11.17
2018-01-29T07:00:18.116Z,11.21
2018-01-29T07:01:23.205Z,11.24
2018-01-29T07:02:28.970Z,11.27
2018-01-29T07:03:34.729Z,11.23
2018-01-29T07:04:40.492Z,11.20
2018-01-29T07:05:46.231Z,11.20
2018-01-29T07:06:51.988Z,11.17
2018-01-29T07:07:57.733Z,11.16
2018-01-29T07:09:03.850Z,11.17
2018-01-29T07:10:09.576Z,11.20
2018-01-29T07:11:15.315Z,11.20
2018-01-29T07:12:21.076Z,11.20
2018-01-29T07:13:26.796Z,11.19
2018-01-29T07:14:32.544Z,11.18
2018-01-29T07:15:38.345Z,11.18
2018-01-29T07:16:44.847Z,11.18
2018-01-29T07:17:50.575Z,11.21
2018-01-29T07:18:56.102Z,11.21
2018-01-29T07:20:01.904Z,11.23
2018-01-29T07:21:09.142Z,11.22
2018-01-29T07:22:14.868Z,11.25
2018-01-29T07:23:20.590Z,11.27
2018-01-29T07:24:25.999Z,11.30
2018-01-29T07:25:32.538Z,11.31
2018-01-29T07:26:38.307Z,11.30
2018-01-29T07:27:44.804Z,11.28
2018-01-29T07:28:50.547Z,11.33
2018-01-29T07:29:56.276Z,11.31
2018-01-29T07:31:02.048Z,11.32
2018-01-29T07:32:07.782Z,11.31
2018-01-29T07:33:13.560Z,11.34
2018-01-29T07:34:19.477Z,11.40
2018-01-29T07:35:25.272Z,11.43
2018-01-29T07:36:31.803Z,11.46
2018-01-29T07:37:37.576Z,11.38
2018-01-29T07:38:43.312Z,11.36
2018-01-29T07:39:49.598Z,11.36
2018-01-29T07:40:55.353Z,11.35
2018-01-29T07:42:01.154Z,11.36
2018-01-29T07:43:07.513Z,11.34
2018-01-29T07:44:13.307Z,11.36
2018-01-29T07:45:18.719Z,11.37
2018-01-29T07:46:24.462Z,11.33
2018-01-29T07:47:30.230Z,11.33
2018-01-29T07:48:35.783Z,11.38
2018-01-29T07:49:41.531Z,11.38
2018-01-29T07:50:48.037Z,11.35
2018-01-29T07:51:53.756Z,11.37
2018-01-29T07:52:59.533Z,11.41
2018-01-29T07:54:05.665Z,11.41
2018-01-29T07:55:11.407Z,11.43
2018-01-29T07:56:17.156Z,11.43
2018-01-29T07:57:22.903Z,11.44
2018-01-29T07:58:28.867Z,11.44
2018-01-29T07:59:34.616Z,11.46
2018-01-29T08:00:40.340Z,11.45
2018-01-29T08:01:46.074Z,11.42
2018-01-29T08:02:51.862Z,11.41
2018-01-29T08:03:57.832Z,11.39
2018-01-29T08:05:03.248Z,11.41
2018-01-29T08:06:09.758Z,11.40
2018-01-29T08:07:15.504Z,11.38
2018-01-29T08:08:21.255Z,11.40
2018-01-29T08:09:27.024Z,11.41
2018-01-29T08:10:33.514Z,11.41
2018-01-29T08:11:39.262Z,11.40
2018-01-29T08:12:45.004Z,11.42
2018-01-29T08:13:50.743Z,11.43
2018-01-29T08:14:56.511Z,11.51
2018-01-29T08:16:02.263Z,11.53
2018-01-29T08:17:08.036Z,11.55
2018-01-29T08:18:13.858Z,11.53
2018-01-29T08:19:19.611Z,11.55
2018-01-29T08:20:26.161Z,11.57
2018-01-29T08:21:31.906Z,11.53
2018-01-29T08:22:38.415Z,11.54
2018-01-29T08:23:44.142Z,11.56
2018-01-29T08:24:49.860Z,11.56
2018-01-29T08:25:56.372Z,11.62
2018-01-29T08:27:02.093Z,11.59
2018-01-29T08:28:07.835Z,11.59
2018-01-29T08:29:13.574Z,11.60
2018-01-29T08:30:19.471Z,11.61
2018-01-29T08:31:25.222Z,11.61
2018-01-29T08:32:31.797Z,11.63
2018-01-29T08:33:38.300Z,11.70
2018-01-29T08:34:44.039Z,11.71
2018-01-29T08:35:49.805Z,11.69
2018-01-29T08:36:55.578Z,11.64
2018-01-29T08:38:01.350Z,11.62
2018-01-29T08:39:06.746Z,11.63
2018-01-29T08:40:13.286Z,11.64
2018-01-29T08:41:19.343Z,11.64
2018-01-29T08:42:25.100Z,11.65
2018-01-29T08:43:31.616Z,11.66
2018-01-29T08:44:37.350Z,11.71
2018-01-29T08:45:42.924Z,11.71
2018-01-29T08:46:49.264Z,11.74
2018-01-29T08:47:55.040Z,11.77
2018-01-29T08:49:01.558Z,11.78
2018-01-29T08:50:07.315Z,11.78
2018-01-29T08:51:13.064Z,11.79
2018-01-29T08:52:19.602Z,11.81
2018-01-29T08:53:25.223Z,11.82
2018-01-29T08:54:30.955Z,11.81
2018-01-29T08:55:36.707Z,11.80
2018-01-29T08:56:42.438Z,11.82
2018-01-29T08:57:48.157Z,11.82
2018-01-29T08:58:53.951Z,11.86
2018-01-29T08:59:59.707Z,11.86
2018-01-29T09:01:05.882Z,11.91
2018-01-29T09:02:11.627Z,11.88
2018-01-29T09:03:17.386Z,11.92
2018-01-29T09:04:23.156Z,11.95
2018-01-29T09:05:28.898Z,11.94
2018-01-29T09:06:34.683Z,11.91
2018-01-29T09:07:41.172Z,11.94
2018-01-29T09:08:46.953Z,11.93
2018-01-29T09:09:52.752Z,11.94
2018-01-29T09:10:58.505Z,11.96
2018-01-29T09:12:03.745Z,11.99
2018-01-29T09:13:09.501Z,11.98
2018-01-29T09:14:15.283Z,12.01
2018-01-29T09:15:21.839Z,12.04
2018-01-29T09:16:28.339Z,12.08
2018-01-29T09:17:33.885Z,12.14
2018-01-29T09:18:39.621Z,12.22
2018-01-29T09:19:45.362Z,12.21
2018-01-29T09:20:50.225Z,12.28
2018-01-29T09:21:56.717Z,12.35
2018-01-29T09:23:02.457Z,12.43
2018-01-29T09:24:08.181Z,12.50
2018-01-29T09:25:13.963Z,12.52
2018-01-29T09:26:19.744Z,12.54
2018-01-29T09:27:25.469Z,12.58
2018-01-29T09:28:31.222Z,12.56
2018-01-29T09:29:36.940Z,12.57
2018-01-29T09:30:42.727Z,12.59
2018-01-29T09:31:49.288Z,12.53
2018-01-29T09:32:55.812Z,12.53
2018-01-29T09:34:01.558Z,12.54
2018-01-29T09:35:07.317Z,12.60
2018-01-29T09:36:13.660Z,12.61
2018-01-29T09:37:20.189Z,12.58
2018-01-29T09:38:25.954Z,12.57
2018-01-29T09:39:31.421Z,12.54
2018-01-29T09:40:37.953Z,12.57
2018-01-29T09:41:44.465Z,12.58
2018-01-29T09:42:49.933Z,12.55
2018-01-29T09:43:55.661Z,12.55
2018-01-29T09:45:01.401Z,12.61
2018-01-29T09:46:07.132Z,12.64
2018-01-29T09:47:12.887Z,12.64
2018-01-29T09:48:18.596Z,12.62
2018-01-29T09:49:24.959Z,12.65
2018-01-29T09:50:30.500Z,12.64
2018-01-29T09:51:36.247Z,12.59
2018-01-29T09:52:41.998Z,12.56
2018-01-29T09:53:48.017Z,12.55
2018-01-29T09:54:54.340Z,12.66
2018-01-29T09:56:00.075Z,12.64
2018-01-29T09:57:05.820Z,12.58
2018-01-29T09:58:11.566Z,12.60
2018-01-29T09:59:17.327Z,12.66
2018-01-29T10:00:23.837Z,12.67
2018-01-29T10:01:29.587Z,12.71
2018-01-29T10:02:35.370Z,12.72
2018-01-29T10:03:41.877Z,12.72
2018-01-29T10:04:47.637Z,12.73
2018-01-29T10:05:53.198Z,12.80
2018-01-29T10:06:58.928Z,12.82
2018-01-29T10:08:04.507Z,12.81
2018-01-29T10:09:10.281Z,12.79
2018-01-29T10:10:15.600Z,12.82
2018-01-29T10:11:22.151Z,12.86
2018-01-29T10:12:28.470Z,12.80
2018-01-29T10:13:34.242Z,12.77
2018-01-29T10:14:40.155Z,12.83
2018-01-29T10:15:45.900Z,12.94
2018-01-29T10:16:51.646Z,13.03
2018-01-29T10:17:57.380Z,13.08
2018-01-29T10:19:03.113Z,13.15
2018-01-29T10:20:08.841Z,13.16
2018-01-29T10:21:14.611Z,13.10
2018-01-29T10:22:20.353Z,13.07
2018-01-29T10:23:26.132Z,13.07
2018-01-29T10:24:32.630Z,13.09
2018-01-29T10:25:37.813Z,13.07
2018-01-29T10:26:43.603Z,13.08
2018-01-29T10:27:49.335Z,13.05
2018-01-29T10:28:55.079Z,13.02
2018-01-29T10:29:59.951Z,13.02
2018-01-29T10:31:06.446Z,12.96
2018-01-29T10:32:12.232Z,12.93
2018-01-29T10:33:18.735Z,12.94
2018-01-29T10:34:24.489Z,12.93
2018-01-29T10:35:30.227Z,12.89
2018-01-29T10:36:35.960Z,12.82
2018-01-29T10:37:41.733Z,12.76
2018-01-29T10:38:47.295Z,12.74
2018-01-29T10:39:53.034Z,12.73
2018-01-29T10:40:58.783Z,12.71
2018-01-29T10:42:04.542Z,12.70
2018-01-29T10:43:11.084Z,12.75
2018-01-29T10:44:16.819Z,12.74
2018-01-29T10:45:23.513Z,12.68
2018-01-29T10:46:29.240Z,12.67
2018-01-29T10:47:35.760Z,12.69
2018-01-29T10:48:41.535Z,12.72
2018-01-29T10:49:47.275Z,12.79
2018-01-29T10:50:53.000Z,12.83
2018-01-29T10:51:58.724Z,12.81
2018-01-29T10:53:04.452Z,12.80
2018-01-29T10:54:10.208Z,12.67
2018-01-29T10:55:15.963Z,12.68
2018-01-29T10:56:20.820Z,12.68
2018-01-29T10:57:27.368Z,12.67
2018-01-29T10:58:33.128Z,12.73
2018-01-29T10:59:39.004Z,12.70
2018-01-29T11:00:50.115Z,12.72
2018-01-29T11:02:01.306Z,12.79
2018-01-29T11:03:07.046Z,12.81
2018-01-29T11:04:13.563Z,12.84
2018-01-29T11:05:19.109Z,12.84
2018-01-29T11:06:24.863Z,12.80
2018-01-29T11:07:30.607Z,12.81
2018-01-29T11:08:36.619Z,12.79
2018-01-29T11:10:45.802Z,12.81
2018-01-29T11:11:51.560Z,12.81
2018-01-29T11:12:58.071Z,12.93
2018-01-29T11:14:03.828Z,13.00
2018-01-29T11:15:09.568Z,13.02
2018-01-29T11:16:15.354Z,13.03
2018-01-29T11:17:21.143Z,12.99
2018-01-29T11:18:26.928Z,13.05
2018-01-29T11:20:38.077Z,13.05
2018-01-29T11:21:44.672Z,13.10
2018-01-29T11:22:50.414Z,13.13
2018-01-29T11:23:56.164Z,13.25
2018-01-29T11:25:02.147Z,13.28
2018-01-29T11:26:07.887Z,13.32
2018-01-29T11:27:13.642Z,13.39
2018-01-29T11:28:19.211Z,13.40
2018-01-29T11:29:25.096Z,13.44
2018-01-29T11:30:29.958Z,13.45
2018-01-29T11:31:36.463Z,13.48
2018-01-29T11:32:42.258Z,13.55
2018-01-29T11:33:47.986Z,13.54
2018-01-29T11:34:53.752Z,13.57
2018-01-29T11:36:00.263Z,13.57
2018-01-29T11:37:06.019Z,13.60
2018-01-29T11:38:11.587Z,13.53
2018-01-29T11:39:18.090Z,13.48
2018-01-29T11:40:22.985Z,13.43
2018-01-29T11:41:28.712Z,13.46
2018-01-29T11:42:35.216Z,13.51
2018-01-29T11:43:41.000Z,13.54
2018-01-29T11:44:46.752Z,13.53
2018-01-29T11:45:52.496Z,13.56
2018-01-29T11:46:58.274Z,13.58
2018-01-29T11:48:04.087Z,13.57
2018-01-29T11:49:09.849Z,13.54
2018-01-29T11:50:16.645Z,13.54
2018-01-29T11:51:22.373Z,13.56
2018-01-29T11:52:28.439Z,13.50
2018-01-29T11:53:34.484Z,13.51
2018-01-29T11:54:40.272Z,13.57
2018-01-29T11:55:46.058Z,13.50
2018-01-29T11:56:51.803Z,13.46
2018-01-29T11:57:57.535Z,13.49
2018-01-29T11:59:04.086Z,13.48
2018-01-29T12:00:10.155Z,13.51
2018-01-29T12:01:15.898Z,13.57
2018-01-29T12:02:21.952Z,13.59
2018-01-29T12:03:27.703Z,13.56
2018-01-29T12:04:33.429Z,13.58
2018-01-29T12:05:39.208Z,13.66
2018-01-29T12:06:44.952Z,13.63
2018-01-29T12:07:52.180Z,13.63
2018-01-29T12:08:57.936Z,13.65
2018-01-29T12:10:03.661Z,13.69
2018-01-29T12:11:09.457Z,13.73
2018-01-29T12:12:15.275Z,13.69
2018-01-29T12:13:20.784Z,13.59
2018-01-29T12:14:26.539Z,13.57
2018-01-29T12:15:32.303Z,13.60
2018-01-29T12:16:38.074Z,13.66
2018-01-29T12:17:44.574Z,13.65
2018-01-29T12:18:50.325Z,13.64
2018-01-29T12:19:56.083Z,13.64
2018-01-29T12:21:01.902Z,13.68
2018-01-29T12:22:07.669Z,13.73
2018-01-29T12:23:13.418Z,13.79
2018-01-29T12:24:19.481Z,13.82
2018-01-29T12:25:26.013Z,13.83
2018-01-29T12:26:31.748Z,13.82
2018-01-29T12:27:37.528Z,13.81
2018-01-29T12:28:43.279Z,13.79
2018-01-29T12:29:49.864Z,13.76
2018-01-29T12:30:55.617Z,13.85
2018-01-29T12:32:01.795Z,13.82
2018-01-29T12:33:07.651Z,13.87
2018-01-29T12:34:13.501Z,13.92
2018-01-29T12:35:19.221Z,13.90
2018-01-29T12:36:24.754Z,13.84
2018-01-29T12:37:30.498Z,13.75
2018-01-29T12:38:36.283Z,13.78
2018-01-29T12:39:42.794Z,13.78
2018-01-29T12:40:48.548Z,13.77
2018-01-29T12:41:54.314Z,13.74
2018-01-29T12:43:00.060Z,13.77
2018-01-29T12:44:06.598Z,13.78
2018-01-29T12:45:12.649Z,13.77
2018-01-29T12:46:18.391Z,13.80
2018-01-29T12:47:24.145Z,13.78
2018-01-29T12:48:29.936Z,13.80
2018-01-29T12:49:35.735Z,13.70
2018-01-29T12:50:42.240Z,13.70
2018-01-29T12:51:47.960Z,13.62
2018-01-29T12:52:53.710Z,13.58
2018-01-29T12:54:00.210Z,13.53
2018-01-29T12:55:05.983Z,13.54
2018-01-29T12:56:11.969Z,13.54
2018-01-29T12:57:17.747Z,13.54
2018-01-29T12:58:23.522Z,13.51
2018-01-29T12:59:29.273Z,13.51
2018-01-29T13:00:35.048Z,13.51
2018-01-29T13:01:40.786Z,13.43
2018-01-29T13:02:46.523Z,13.39
2018-01-29T13:03:52.687Z,13.41
2018-01-29T13:04:59.963Z,13.39
2018-01-29T13:06:05.757Z,13.37
2018-01-29T13:07:12.273Z,13.40
2018-01-29T13:08:18.013Z,13.37
2018-01-29T13:09:23.732Z,13.33
2018-01-29T13:10:30.245Z,13.30
2018-01-29T13:11:36.782Z,13.28
2018-01-29T13:12:42.529Z,13.22
2018-01-29T13:13:48.267Z,13.26
2018-01-29T13:14:54.024Z,13.25
2018-01-29T13:16:00.606Z,13.28
2018-01-29T13:17:06.435Z,13.27
2018-01-29T13:18:12.920Z,13.29
2018-01-29T13:19:18.648Z,13.27
2018-01-29T13:20:24.394Z,13.21
2018-01-29T13:21:30.434Z,13.24
2018-01-29T13:22:36.973Z,13.23
2018-01-29T13:23:43.478Z,13.25
2018-01-29T13:24:49.246Z,13.29
2018-01-29T13:25:54.997Z,13.32
2018-01-29T13:27:00.760Z,13.29
2018-01-29T13:28:07.322Z,13.32
2018-01-29T13:29:13.835Z,13.32
2018-01-29T13:30:19.589Z,13.34
2018-01-29T13:31:25.367Z,13.39
2018-01-29T13:32:31.876Z,13.35
2018-01-29T13:33:37.634Z,13.37
2018-01-29T13:34:43.426Z,13.38
2018-01-29T13:35:48.847Z,13.38
2018-01-29T13:36:55.416Z,13.34
2018-01-29T13:38:02.412Z,13.35
2018-01-29T13:39:08.166Z,13.35
2018-01-29T13:40:14.020Z,13.39
2018-01-29T13:41:19.780Z,13.41
2018-01-29T13:42:25.566Z,13.34
2018-01-29T13:43:31.125Z,13.28
2018-01-29T13:44:36.886Z,13.23
2018-01-29T13:45:42.677Z,13.22
2018-01-29T13:46:48.423Z,13.19
2018-01-29T13:47:54.225Z,13.16
2018-01-29T13:48:59.971Z,13.15
2018-01-29T13:50:05.734Z,13.18
2018-01-29T13:51:12.091Z,13.19
2018-01-29T13:52:18.603Z,13.19
2018-01-29T13:53:24.332Z,13.19
2018-01-29T13:54:30.069Z,13.18
2018-01-29T13:55:35.851Z,13.11
2018-01-29T13:56:42.616Z,13.12
2018-01-29T13:57:48.360Z,13.09
2018-01-29T13:58:54.117Z,13.09
2018-01-29T14:00:00.694Z,13.09
2018-01-29T14:01:06.511Z,13.09
2018-01-29T14:02:12.315Z,13.04
2018-01-29T14:03:18.242Z,13.05
2018-01-29T14:04:23.988Z,13.02
2018-01-29T14:05:29.738Z,13.04
2018-01-29T14:06:35.492Z,13.05
2018-01-29T14:07:41.221Z,13.01
2018-01-29T14:08:47.005Z,13.02
2018-01-29T14:09:52.749Z,13.05
2018-01-29T14:10:59.251Z,13.01
2018-01-29T14:12:05.002Z,13.00
2018-01-29T14:13:10.769Z,12.97
2018-01-29T14:14:16.506Z,12.98